LOWK 210150Z AUTO VRB02KT 9999 SCT042 BKN060 11/08 Q1023 LOWK 210120Z AUTO VRB02KT 9999 FEW042 BKN060 12/08 Q1023 LOWK 210050Z 04002KT 9999 FEW010 SCT045 BKN070 12/08 Q1023 NOSIG LOWK 210020Z 07003KT 9999 FEW010 SCT050 BKN070 12/08 Q1023 NOSIG LOWK 202350Z VRB02KT 9999 FEW045 BKN055 12/08 Q1023 NOSIG LOWK 202320Z AUTO 06003KT 040V100 9999 FEW042 BKN044 12/08 Q1023 LOWK 202250Z AUTO VRB01KT 9999 FEW042 BKN050 12/08 Q1023 LOWK 202220Z AUTO VRB02KT 9999 FEW042 SCT044 BKN050 12/09 Q1022 LOWK 202150Z AUTO 11004KT 060V170 9999 FEW038 BKN046 12/09 Q1022 LOWK 202120Z AUTO 11003KT 070V170 9999 FEW025 SCT036 BKN045 12/09 Q1022 NOSIG LOWK 202050Z AUTO 11003KT 060V160 9999 FEW025 BKN043 BKN050 12/09 Q1022 NOSIG LOWK 202020Z AUTO 12004KT 070V160 9999 FEW025 SCT045 BKN050 12/09 Q1022 NOSIG LOWK 201950Z AUTO 08004KT 050V130 9999 FEW025 SCT046 BKN050 13/08 Q1021 NOSIG LOWK 201920Z AUTO 09004KT 050V150 9999 FEW025 SCT045 BKN050 13/08 Q1021 NOSIG LOWK 201850Z AUTO 09004KT 030V160 9999 FEW025 SCT045 BKN050 13/08 Q1021 NOSIG LOWK 201820Z AUTO 10004KT 040V160 9999 FEW025 SCT045 BKN060 12/09 Q1020 NOSIG LOWK 201750Z AUTO 10004KT 050V140 9999 FEW025 SCT055 13/08 Q1020 NOSIG LOWK 201720Z 10007KT 060V130 9999 FEW025 13/08 Q1019 NOSIG LOWK 201650Z 10007KT 060V150 9999 FEW030 13/08 Q1019 NOSIG LOWK 201620Z 10007KT 040V140 9999 FEW030 14/08 Q1019 NOSIG LOWK 201550Z 10007KT 060V140 9999 FEW030 SCT080 14/09 Q1018 NOSIG LOWK 201520Z 11008KT 070V160 9999 FEW025 BKN070 15/09 Q1018 NOSIG LOWK 201450Z 10008KT 070V140 9999 FEW025 BKN070 15/09 Q1018 NOSIG LOWK 201420Z 10008KT 060V140 9999 FEW025 BKN070 15/09 Q1018 NOSIG LOWK 201350Z 10008KT 060V140 9999 FEW025 BKN070 16/09 Q1017 NOSIG LOWK 201320Z 10008KT 060V150 9999 FEW025 BKN070 16/09 Q1017 NOSIG LOWK 201250Z 09007KT 040V140 9999 FEW025 BKN060 16/09 Q1017 NOSIG LOWK 201220Z 10005KT 050V180 9999 FEW015 BKN055 16/10 Q1017 NOSIG LOWK 201150Z 10006KT 040V160 9999 FEW015 BKN055 16/09 Q1017 NOSIG LOWK 201120Z 10007KT 050V160 9999 FEW015 BKN070 16/10 Q1017 NOSIG LOWK 201050Z 11006KT 050V160 9999 FEW015 BKN060 16/11 Q1017 NOSIG LOWK 201020Z 10006KT 060V140 9999 FEW010 BKN050 15/10 Q1017 NOSIG LOWK 200950Z 10006KT 040V150 9999 FEW008 BKN060 14/10 Q1017 NOSIG LOWK 200920Z 10006KT 050V160 9999 FEW008 BKN060 14/10 Q1017 NOSIG LOWK 200850Z 10005KT 060V150 9999 FEW006 SCT015 BKN080 14/10 Q1017 NOSIG LOWK 200820Z 10005KT 060V140 9999 FEW006 BKN015 13/10 Q1017 NOSIG LOWK 200750Z 08006KT 050V110 8000 FEW006 BKN013 BKN070 12/10 Q1016 BECMG BKN070 LOWK 200720Z 09005KT 060V140 8000 FEW006 BKN012 12/10 Q1016 BECMG BKN070 LOWK 200650Z 08006KT 060V130 8000 FEW004 BKN013 BKN070 12/10 Q1016 BECMG BKN070 LOWK 200620Z 08005KT 050V130 8000 -RA SCT005 BKN013 12/11 Q1016 BECMG BKN060 LOWK 200550Z 09004KT 050V150 8000 -RA FEW003 BKN005 BKN012 12/11 Q1015 BECMG BKN012 LOWK 200520Z 09004KT 060V140 7000 -RA SCT004 BKN010 12/11 Q1015 TEMPO BKN005 LOWK 200450Z AUTO 09003KT 060V140 9999 -RA FEW002 BKN010 12/11 Q1014 NOSIG LOWK 200420Z AUTO VRB02KT 9999 -RA FEW004 SCT013 OVC070 12/11 Q1014 TEMPO BKN012 LOWK 200350Z AUTO VRB01KT 9999 -RA FEW004 SCT036 OVC070 12/11 Q1014 TEMPO BKN006 LOWK 200320Z AUTO VRB01KT 9999 -RADZ FEW032 SCT038 BKN060 12/11 Q1013 REDZ LOWK 200250Z AUTO VRB02KT 9999 -RA FEW013 SCT032 BKN060 12/11 Q1013 LOWK 200220Z AUTO 09004KT 060V120 9999 -RA FEW009 BKN030 12/11 Q1013 LOWK 200150Z AUTO 07004KT 030V180 9999 -RA FEW015 SCT024 BKN050 13/11 Q1013 LOWK 200120Z AUTO VRB01KT 9999 FEW006 BKN014 13/12 Q1013 LOWK 200050Z AUTO 20004KT 9999 -DZ FEW011 BKN036 13/12 Q1013 LOWK 200020Z AUTO 34004KT 300V050 9999 -RA FEW006 BKN024 13/11 Q1013 RESHRA LOWK 192350Z AUTO VRB07G20KT 9999 SHRA FEW009 SCT012 BKN024 14/11 Q1013 RETS LOWK 192320Z AUTO 12006KT 080V160 9999 -SHRA FEW010 BKN024 14/13 Q1012 LOWK 192250Z AUTO 10003KT 040V150 9999 FEW008 BKN026 15/13 Q1012 LOWK 192220Z AUTO VRB01KT 9999 //////CB FEW006 BKN011 15/14 Q1012 LOWK 192150Z AUTO VRB02KT 9999 -SHRA //////CB FEW006 BKN010 15/14 Q1012 LOWK 192120Z AUTO 08004KT 040V140 9999 -SHRA FEW006 BKN090 15/14 Q1011 NOSIG LOWK 192050Z AUTO 08007KT 050V120 9999 -SHRA FEW048 BKN080 15/14 Q1011 TEMPO SHRA LOWK 192020Z AUTO 10003KT 060V150 9999 -RA FEW015 SCT024 BKN050 15/14 Q1012 TEMPO SHRA LOWK 191950Z AUTO 09006KT 060V140 9999 FEW015 SCT020 BKN080 15/14 Q1012 TEMPO SHRA LOWK 191920Z AUTO 10006KT 060V150 8000 -SHRA FEW025 BKN050 15/14 Q1011 RESHRA NOSIG LOWK 191850Z AUTO 09003KT 050V150 8000 SHRA FEW025 BKN050 FEW050CB 16/14 Q1011 TEMPO -SHRA LOWK 191820Z AUTO 05004KT 9999 SHRA FEW025 BKN050 16/14 Q1011 TEMPO -SHRA LOWK 191750Z AUTO VRB02KT 9999 -SHRA FEW025 BKN050 17/14 Q1011 RESHRA TEMPO SHRA LOWK 191720Z VRB02KT 9999 -SHRA FEW025 BKN050 18/14 Q1011 TEMPO SHRA LOWK 191650Z VRB02KT 9999 -SHRA FEW025 BKN050 19/13 Q1011 TEMPO SHRA LOWK 191620Z VRB02KT 9999 FEW040 BKN065 19/12 Q1011 TEMPO SHRA LOWK 191550Z VRB01KT 9999 FEW040 BKN065 20/12 Q1011 TEMPO SHRA LOWK 191520Z VRB03KT 9999 FEW045 SCT080 BKN100 20/11 Q1011 NOSIG LOWK 191450Z VRB02KT 9999 FEW040 SCT100 20/12 Q1011 NOSIG LOWK 191420Z 07003KT 040V100 9999 -SHRA FEW040 SCT070 BKN100 19/11 Q1011 NOSIG

METAR Messwerte

Zurück zur Übersicht

Ort
m ü. NN
Zeit Temperatur Taupunkt Rel.
Luftfeuchte
Luftdruck:
Altimeter
NN
Station
Wind in Beaufort
(Knoten)
Sichtweite
(Meter)
Wolken
(Meter über Grund)
Wettererscheinung
Klagenfurt
441
Di 21.09. 03:5011882 %1023
1024
971
Uml 1 (2)>= 10000Stark bewölkt (1800)
Wolkig (1300)
 
Klagenfurt
441
Di 21.09. 03:2012876 %1023
1024
971
Uml 1 (2)>= 10000Stark bewölkt (1800)
Leicht bewölkt (1300)
 
Klagenfurt
441
Di 21.09. 02:5012876 %1023
1024
971
NO 1 (2)>= 10000Stark bewölkt (2100)
Wolkig (1400)
Leicht bewölkt (300)
 
Klagenfurt
441
Di 21.09. 02:2012876 %1023
1024
971
ONO 2 (3)>= 10000Stark bewölkt (2100)
Wolkig (1500)
Leicht bewölkt (300)
 
Klagenfurt
441
Di 21.09. 01:5012876 %1023
1024
971
Uml 1 (2)>= 10000Stark bewölkt (1700)
Leicht bewölkt (1400)
 
Klagenfurt
441
Di 21.09. 01:2012876 %1023
1024
971
ONO 2 (3)
NO - O
>= 10000Stark bewölkt (1300)
Leicht bewölkt (1300)
 
Klagenfurt
441
Di 21.09. 00:5012876 %1023
1024
971
Uml 1 (1)>= 10000Stark bewölkt (1500)
Leicht bewölkt (1300)
 
Klagenfurt
441
Di 21.09. 00:2012982 %1022
1023
970
Uml 1 (2)>= 10000Stark bewölkt (1500)
Wolkig (1300)
Leicht bewölkt (1300)
 
Klagenfurt
441
Mo 20.09. 23:5012982 %1022
1023
970
OSO 2 (4)
ONO - S
>= 10000Stark bewölkt (1400)
Leicht bewölkt (1200)
 
Klagenfurt
441
Mo 20.09. 23:2012982 %1022
1023
970
OSO 2 (3)
ONO - S
>= 10000Stark bewölkt (1400)
Wolkig (1100)
Leicht bewölkt (760)
 
Klagenfurt
441
Mo 20.09. 22:5012982 %1022
1023
970
OSO 2 (3)
ONO - SSO
>= 10000Stark bewölkt (1500)
Stark bewölkt (1300)
Leicht bewölkt (760)
 
Klagenfurt
441
Mo 20.09. 22:2012982 %1022
1023
970
OSO 2 (4)
ONO - SSO
>= 10000Stark bewölkt (1500)
Wolkig (1400)
Leicht bewölkt (760)
 
Klagenfurt
441
Mo 20.09. 21:5013872 %1021
1021
969
O 2 (4)
NO - SO
>= 10000Stark bewölkt (1500)
Wolkig (1400)
Leicht bewölkt (760)
 
Klagenfurt
441
Mo 20.09. 21:2013872 %1021
1021
969
O 2 (4)
NO - SSO
>= 10000Stark bewölkt (1500)
Wolkig (1400)
Leicht bewölkt (760)
 
Klagenfurt
441
Mo 20.09. 20:5013872 %1021
1021
969
O 2 (4)
NNO - SSO
>= 10000Stark bewölkt (1500)
Wolkig (1400)
Leicht bewölkt (760)
 
Klagenfurt
441
Mo 20.09. 20:2012982 %1020
1021
968
O 2 (4)
NO - SSO
>= 10000Stark bewölkt (1800)
Wolkig (1400)
Leicht bewölkt (760)
 
Klagenfurt
441
Mo 20.09. 19:5013872 %1020
1020
968
O 2 (4)
NO - SO
>= 10000Wolkig (1700)
Leicht bewölkt (760)
 
Klagenfurt
441
Mo 20.09. 19:2013872 %1019
1019
967
O 3 (7)
ONO - SO
>= 10000Leicht bewölkt (760) 
Klagenfurt
441
Mo 20.09. 18:5013872 %1019
1019
967
O 3 (7)
ONO - SSO
>= 10000Leicht bewölkt (910) 
Klagenfurt
441
Mo 20.09. 18:2014867 %1019
1019
967
O 3 (7)
NO - SO
>= 10000Leicht bewölkt (910) 
Klagenfurt
441
Mo 20.09. 17:5014972 %1018
1018
966
O 3 (7)
ONO - SO
>= 10000Wolkig (2400)
Leicht bewölkt (910)
 
Klagenfurt
441
Mo 20.09. 17:2015967 %1018
1018
966
OSO 3 (8)
ONO - SSO
>= 10000Stark bewölkt (2100)
Leicht bewölkt (760)
 
Klagenfurt
441
Mo 20.09. 16:5015967 %1018
1018
966
O 3 (8)
ONO - SO
>= 10000Stark bewölkt (2100)
Leicht bewölkt (760)
 
Klagenfurt
441
Mo 20.09. 16:2015967 %1018
1018
966
O 3 (8)
ONO - SO
>= 10000Stark bewölkt (2100)
Leicht bewölkt (760)
 
Klagenfurt
441
Mo 20.09. 15:5016963 %1017
1017
965
O 3 (8)
ONO - SO
>= 10000Stark bewölkt (2100)
Leicht bewölkt (760)
 
Klagenfurt
441
Mo 20.09. 15:2016963 %1017
1017
965
O 3 (8)
ONO - SSO
>= 10000Stark bewölkt (2100)
Leicht bewölkt (760)
 
Klagenfurt
441
Mo 20.09. 14:5016963 %1017
1017
965
O 3 (7)
NO - SO
>= 10000Stark bewölkt (1800)
Leicht bewölkt (760)
 
Klagenfurt
441
Mo 20.09. 14:20161068 %1017
1017
965
O 2 (5)
NO - S
>= 10000Stark bewölkt (1700)
Leicht bewölkt (460)
 
Klagenfurt
441
Mo 20.09. 13:5016963 %1017
1017
965
O 2 (6)
NO - SSO
>= 10000Stark bewölkt (1700)
Leicht bewölkt (460)
 
Klagenfurt
441
Mo 20.09. 13:20161068 %1017
1017
965
O 3 (7)
NO - SSO
>= 10000Stark bewölkt (2100)
Leicht bewölkt (460)
 
Klagenfurt
441
Mo 20.09. 12:50161172 %1017
1017
965
OSO 2 (6)
NO - SSO
>= 10000Stark bewölkt (1800)
Leicht bewölkt (460)
 
Klagenfurt
441
Mo 20.09. 12:20151072 %1017
1017
965
O 2 (6)
ONO - SO
>= 10000Stark bewölkt (1500)
Leicht bewölkt (300)
 
Klagenfurt
441
Mo 20.09. 11:50141077 %1017
1017
965
O 2 (6)
NO - SSO
>= 10000Stark bewölkt (1800)
Leicht bewölkt (240)
 
Klagenfurt
441
Mo 20.09. 11:20141077 %1017
1017
965
O 2 (6)
NO - SSO
>= 10000Stark bewölkt (1800)
Leicht bewölkt (240)
 
Klagenfurt
441
Mo 20.09. 10:50141077 %1017
1017
965
O 2 (5)
ONO - SSO
>= 10000Stark bewölkt (2400)
Wolkig (460)
Leicht bewölkt (180)
 
Klagenfurt
441
Mo 20.09. 10:20131082 %1017
1017
965
O 2 (5)
ONO - SO
>= 10000Stark bewölkt (460)
Leicht bewölkt (180)
 
Klagenfurt
441
Mo 20.09. 09:50121088 %1016
1017
964
O 2 (6)
NO - OSO
8000Stark bewölkt (2100)
Stark bewölkt (400)
Leicht bewölkt (180)
 
Klagenfurt
441
Mo 20.09. 09:20121088 %1016
1017
964
O 2 (5)
ONO - SO
8000Stark bewölkt (370)
Leicht bewölkt (180)
 
Klagenfurt
441
Mo 20.09. 08:50121088 %1016
1017
964
O 2 (6)
ONO - SO
8000Stark bewölkt (2100)
Stark bewölkt (400)
Leicht bewölkt (120)
 
Klagenfurt
441
Mo 20.09. 08:20121194 %1016
1017
964
O 2 (5)
NO - SO
8000Stark bewölkt (400)
Wolkig (150)
Regen (schwach)
Klagenfurt
441
Mo 20.09. 07:50121194 %1015
1016
963
O 2 (4)
NO - SSO
8000Stark bewölkt (370)
Stark bewölkt (150)
Leicht bewölkt (91)
Regen (schwach)
Klagenfurt
441
Mo 20.09. 07:20121194 %1015
1016
963
O 2 (4)
ONO - SO
7000Stark bewölkt (300)
Wolkig (120)
Regen (schwach)
Klagenfurt
441
Mo 20.09. 06:50121194 %1014
1015
962
O 2 (3)
ONO - SO
>= 10000Stark bewölkt (300)
Leicht bewölkt (61)
Regen (schwach)
Klagenfurt
441
Mo 20.09. 06:20121194 %1014
1015
962
Uml 1 (2)>= 10000Bedeckt (2100)
Wolkig (400)
Leicht bewölkt (120)
Regen (schwach)
Klagenfurt
441
Mo 20.09. 05:50121194 %1014
1015
962
Uml 1 (1)>= 10000Bedeckt (2100)
Wolkig (1100)
Leicht bewölkt (120)
Regen (schwach)
Klagenfurt
441
Mo 20.09. 05:20121194 %1013
1014
961
Uml 1 (1)>= 10000Stark bewölkt (1800)
Wolkig (1200)
Leicht bewölkt (980)
Regen/Nieselregen (schwach)
Klagenfurt
441
Mo 20.09. 04:50121194 %1013
1014
961
Uml 1 (2)>= 10000Stark bewölkt (1800)
Wolkig (980)
Leicht bewölkt (400)
Regen (schwach)
Klagenfurt
441
Mo 20.09. 04:20121194 %1013
1014
961
O 2 (4)
ONO - OSO
>= 10000Stark bewölkt (910)
Leicht bewölkt (270)
Regen (schwach)
Klagenfurt
441
Mo 20.09. 03:50131188 %1013
1013
961
ONO 2 (4)
NNO - S
>= 10000Stark bewölkt (1500)
Wolkig (730)
Leicht bewölkt (460)
Regen (schwach)
Klagenfurt
441
Mo 20.09. 03:20131294 %1013
1013
961
Uml 1 (1)>= 10000Stark bewölkt (430)
Leicht bewölkt (180)
 
Klagenfurt
441
Mo 20.09. 02:50131294 %1013
1013
961
SSW 2 (4)>= 10000Stark bewölkt (1100)
Leicht bewölkt (340)
Nieselregen (schwach)
Klagenfurt
441
Mo 20.09. 02:20131188 %1013
1013
961
NNW 2 (4)
WNW - NO
>= 10000Stark bewölkt (730)
Leicht bewölkt (180)
Regen (schwach)
Klagenfurt
441
Mo 20.09. 01:50141182 %1013
1013
961
Uml 3 (7) - 5 (20)>= 10000Stark bewölkt (730)
Wolkig (370)
Leicht bewölkt (270)
Regen-Schauer
Klagenfurt
441
Mo 20.09. 01:20141394 %1012
1012
960
OSO 2 (6)
O - SSO
>= 10000Stark bewölkt (730)
Leicht bewölkt (300)
Regen-Schauer (schwach)
Klagenfurt
441
Mo 20.09. 00:50151388 %1012
1012
960
O 2 (3)
NO - SSO
>= 10000Stark bewölkt (790)
Leicht bewölkt (240)
 
Klagenfurt
441
Mo 20.09. 00:20151494 %1012
1012
960
Uml 1 (1)>= 10000Stark bewölkt (340)
Leicht bewölkt (180)
 
Klagenfurt
441
So 19.09. 23:50151494 %1012
1012
960
Uml 1 (2)>= 10000Stark bewölkt (300)
Leicht bewölkt (180)
Regen-Schauer (schwach)
Klagenfurt
441
So 19.09. 23:20151494 %1011
1011
959
O 2 (4)
NO - SO
>= 10000Stark bewölkt (2700)
Leicht bewölkt (180)
Regen-Schauer (schwach)
Klagenfurt
441
So 19.09. 22:50151494 %1011
1011
959
O 3 (7)
NO - OSO
>= 10000Stark bewölkt (2400)
Leicht bewölkt (1500)
Regen-Schauer (schwach)
Bald möglich: Regen-Schauer
Klagenfurt
441
So 19.09. 22:20151494 %1012
1012
960
O 2 (3)
ONO - SSO
>= 10000Stark bewölkt (1500)
Wolkig (730)
Leicht bewölkt (460)
Regen (schwach)
Bald möglich: Regen-Schauer
Klagenfurt
441
So 19.09. 21:50151494 %1012
1012
960
O 2 (6)
ONO - SO
>= 10000Stark bewölkt (2400)
Wolkig (610)
Leicht bewölkt (460)
 Bald möglich: Regen-Schauer
Klagenfurt
441
So 19.09. 21:20151494 %1011
1011
959
O 2 (6)
ONO - SSO
8000Stark bewölkt (1500)
Leicht bewölkt (760)
Regen-Schauer (schwach)
Klagenfurt
441
So 19.09. 20:50161488 %1011
1011
959
O 2 (3)
NO - SSO
8000Stark bewölkt (1500)
Leicht bewölkt Cb (1500)
Leicht bewölkt (760)
Regen-Schauer
Bald möglich: Regen-Schauer (schwach)
Klagenfurt
441
So 19.09. 20:20161488 %1011
1011
959
NO 2 (4)>= 10000Stark bewölkt (1500)
Leicht bewölkt (760)
Regen-Schauer
Bald möglich: Regen-Schauer (schwach)
Klagenfurt
441
So 19.09. 19:50171482 %1011
1011
959
Uml 1 (2)>= 10000Stark bewölkt (1500)
Leicht bewölkt (760)
Regen-Schauer (schwach)
Bald möglich: Regen-Schauer
Klagenfurt
441
So 19.09. 19:20181477 %1011
1010
959
Uml 1 (2)>= 10000Stark bewölkt (1500)
Leicht bewölkt (760)
Regen-Schauer (schwach)
Bald möglich: Regen-Schauer
Klagenfurt
441
So 19.09. 18:50191368 %1011
1010
959
Uml 1 (2)>= 10000Stark bewölkt (1500)
Leicht bewölkt (760)
Regen-Schauer (schwach)
Bald möglich: Regen-Schauer
Klagenfurt
441
So 19.09. 18:20191264 %1011
1010
959
Uml 1 (2)>= 10000Stark bewölkt (2000)
Leicht bewölkt (1200)
 Bald möglich: Regen-Schauer
Klagenfurt
441
So 19.09. 17:50201260 %1011
1010
959
Uml 1 (1)>= 10000Stark bewölkt (2000)
Leicht bewölkt (1200)
 Bald möglich: Regen-Schauer
Klagenfurt
441
So 19.09. 17:20201156 %1011
1010
959
Uml 2 (3)>= 10000Stark bewölkt (3000)
Wolkig (2400)
Leicht bewölkt (1400)
 
Klagenfurt
441
So 19.09. 16:50201260 %1011
1010
959
Uml 1 (2)>= 10000Wolkig (3000)
Leicht bewölkt (1200)
 
Klagenfurt
441
So 19.09. 16:20191160 %1011
1010
959
ONO 2 (3)
NO - O
>= 10000Stark bewölkt (3000)
Wolkig (2100)
Leicht bewölkt (1200)
Regen-Schauer (schwach)

Altimeter: Einstellung am Altimeter (Höhenmesser), die Höhe 0 muss auf diesen Luftdruckwert zeigen, damit das Gerät die Stationshöhe richtig anzeigt.

NN: Luftdruck reduziert auf "Normal Null", auf Meereshöhe, dieser von der Temperatur abhängige Wert wird bisweilen unkorrekt einfach als "Luftdruck" bezeichnet. Eigentlich nur eine fiktive Größe, die es erlaubt, Stationen auf unterschiedlichen Höhen miteinander zu vergleichen.

Station: Realer Luftdruck an der Station.